EHEHEBOS

Guest
Details From EHEH - Eindhoven
To EBOS - Oostende
Flight Number -
Tags Generated
Created
Modified
Stats Distance 95 nm / 176 km
Max Altitude 0 ft / 0 m
Waypoints 2
Social Downloads 1
Likes 0
Share VATSIM

Download

Looking for another format? Having issues loading an existing format? Contact us
Advertisement - Login to hide

Notes

Generated

Route

EHEH EBOS

ID Type Via Altitude Latitude Longitude Leg Dist Tot Dist Heading (true) Name
O EHEH APT - 0 ft / 0 m 51.43909˚ 5.36214˚ - 0 nm - -
O EBOS APT - 0 ft / 0 m 51.19832˚ 2.86670˚ 94 nm 94 nm 262° / 260° -

Altitude Profile

Advertisement - Login to hide

EHEH

Details ICAO EHEH (EIN)
Name Eindhoven
Region Netherlands
Timezone Europe/Amsterdam (UTC+1.0)
Stats Elevation 74 ft / 23 m (AMSL)
Location 51.450133° 5.374513°
Runways 1
Magnetic Variation 1.372° E

METAR

EHEH 161903Z AUTO 25006KT 210V300 9999 R21/2400D FEW006 FEW015CB BKN016 OVC020 02/02 Q1017 WHT 27008KT 9999 FEW025 SCT045 TEMPO 30012KT 4000 SHRASN FEW006 SCT015CB BKN030

Decode

TAF

TAF EHEH 161735Z 1618/1724 26007KT 9999 SCT025 TEMPO 1618/1705 FEW020CB BKN030 PROB30 TEMPO 1612/1705 4000 -SHRASNGS SCT012 SCT018CB BKN022 BECMG 1622/1701 24005KT 4000 BR PROB30 1701/1707 0800 FZFG BECMG 1708/1711 9999 NSW BECMG 1720/1723 20012KT -RA BKN020 OVC050

Decode

Departure Runways

ID Width Length Bearing (true) Bearing (mag) Surface Threshold Offset Overrun Length
03 148 ft / 45 m 9,832 ft / 2,997 m 34.92° 33.55° Asphalt 821 ft / 250 m 0 ft / 0 m
21 148 ft / 45 m 9,832 ft / 2,997 m 214.94° 213.57° Asphalt 821 ft / 250 m 0 ft / 0 m

EBOS

Details ICAO EBOS (OST)
Name Oostende
Region Belgium
Timezone Europe/Brussels (UTC+1.0)
Stats Elevation 13 ft / 4 m (AMSL)
Location 51.199967° 2.875008°
Runways 1
Magnetic Variation 0.589° E

METAR

EBOS 161850Z 30013KT 9999 FEW023 04/M02 Q1019 NOSIG

Decode

TAF

TAF EBOS 161700Z 1618/1724 32013KT 9999 FEW015TCU SCT030 BECMG 1709/1711 26010KT BECMG 1712/1714 20010KT TEMPO 1719/1723 4000 RA SCT008 BKN013 BECMG 1722/1724 29015G25KT

Decode

Destination Runways

ID Width Length Bearing (true) Bearing (mag) Surface Threshold Offset Overrun Length
08 148 ft / 45 m 10,515 ft / 3,205 m 76.36° 75.77° Asphalt 984 ft / 300 m 0 ft / 0 m
26 148 ft / 45 m 10,515 ft / 3,205 m 256.39° 255.80° Asphalt 1,362 ft / 415 m 0 ft / 0 m

Approach Navaids

Runway Type Ident Frequency Range Bearing (true) Bearing (mag) Slope Elevation
08 Localiser IMI 111.55 MHz 18 nm / 33 km 76.37° 75.78° - 13 ft / 4 m (AMSL)
08 Glidescope IMI 111.55 MHz 10 nm / 19 km 76.37° 75.78° 3.00° 13 ft / 4 m (AMSL)
08 DME IMI 111.55 MHz 18 nm / 33 km - - - 13 ft / 4 m (AMSL)
26 Localiser IOS 109.50 MHz 18 nm / 33 km 256.37° 255.78° - 13 ft / 4 m (AMSL)
26 Glidescope IOS 109.50 MHz 10 nm / 19 km 256.37° 255.78° 3.00° 13 ft / 4 m (AMSL)